createdAt,value
2023-03-24T00:00:55.846Z,9.711271
2023-03-24T00:01:55.815Z,9.711264
2023-03-24T00:02:55.905Z,9.711470
2023-03-24T00:03:55.887Z,9.711421
2023-03-24T00:04:55.797Z,9.711573
2023-03-24T00:05:55.786Z,9.711429
2023-03-24T00:06:55.775Z,9.711425
2023-03-24T00:07:55.772Z,9.711121
2023-03-24T00:08:57.495Z,9.711063
2023-03-24T00:09:55.743Z,9.711219
2023-03-24T00:10:55.746Z,9.711134
2023-03-24T00:11:55.723Z,9.711262
2023-03-24T00:12:55.724Z,9.711040
2023-03-24T00:13:55.723Z,9.711206
2023-03-24T00:14:55.717Z,9.711796
2023-03-24T00:15:55.774Z,9.711655
2023-03-24T00:16:55.756Z,9.711679
2023-03-24T00:17:55.726Z,9.711539
2023-03-24T00:18:55.671Z,9.711699
2023-03-24T00:19:55.670Z,9.711732
2023-03-24T00:20:55.666Z,9.711852
2023-03-24T00:21:55.993Z,9.711598
2023-03-24T00:26:56.308Z,9.711787
2023-03-24T00:27:57.157Z,9.711769
2023-03-24T00:28:56.295Z,9.711702
2023-03-24T00:29:56.286Z,9.711731
2023-03-24T00:30:56.291Z,9.711689
2023-03-24T00:31:56.278Z,9.711705
2023-03-24T00:32:56.288Z,9.711648
2023-03-24T00:33:56.250Z,9.711757
2023-03-24T00:34:56.250Z,9.711841
2023-03-24T00:35:57.183Z,9.711776
2023-03-24T00:36:56.242Z,9.711807
2023-03-24T00:37:56.230Z,9.711761
2023-03-24T00:38:56.203Z,9.711716
2023-03-24T00:39:56.215Z,9.711779
2023-03-24T00:40:56.193Z,9.711831
2023-03-24T00:41:56.195Z,9.712014
2023-03-24T00:42:56.173Z,9.711857
2023-03-24T00:43:56.185Z,9.711903
2023-03-24T00:44:56.172Z,9.711855
2023-03-24T00:45:56.158Z,9.711674
2023-03-24T00:46:56.187Z,9.711584
2023-03-24T00:47:56.177Z,9.711619
2023-03-24T00:48:56.237Z,9.711640
2023-03-24T00:49:56.121Z,9.711680
2023-03-24T00:50:56.125Z,9.711659
2023-03-24T00:51:57.108Z,9.711577
2023-03-24T00:52:56.112Z,9.711604
2023-03-24T00:53:56.103Z,9.711574
2023-03-24T00:54:56.108Z,9.711623
2023-03-24T00:55:56.080Z,9.711596
2023-03-24T00:56:56.249Z,9.711626
2023-03-24T00:57:56.065Z,9.711630
2023-03-24T00:58:56.064Z,9.711657
2023-03-24T00:59:56.043Z,9.711657
2023-03-24T01:00:56.110Z,9.711575
2023-03-24T01:01:56.071Z,9.711576
2023-03-24T01:02:56.242Z,9.711591
2023-03-24T01:03:56.025Z,9.711627
2023-03-24T01:04:56.024Z,9.711595
2023-03-24T01:05:56.011Z,9.711507
2023-03-24T01:06:55.997Z,9.711495
2023-03-24T01:07:55.986Z,9.711498
2023-03-24T01:08:55.985Z,9.711520
2023-03-24T01:09:55.966Z,9.711471
2023-03-24T01:10:55.950Z,9.711477
2023-03-24T01:11:55.969Z,9.711457
2023-03-24T01:12:55.964Z,9.711447
2023-03-24T01:13:55.943Z,9.711422
2023-03-24T01:14:55.929Z,9.711455
2023-03-24T01:15:55.941Z,9.711420
2023-03-24T01:16:55.919Z,9.711460
2023-03-24T01:17:56.983Z,9.711464
2023-03-24T01:18:55.910Z,9.711524
2023-03-24T01:19:55.890Z,9.711638
2023-03-24T01:20:55.906Z,9.711616
2023-03-24T01:21:55.895Z,9.711637
2023-03-24T01:22:55.862Z,9.711651
2023-03-24T01:23:55.865Z,9.711556
2023-03-24T01:24:55.857Z,9.711543
2023-03-24T01:25:55.850Z,9.711410
2023-03-24T01:26:55.862Z,9.711407
2023-03-24T01:27:55.834Z,9.711578
2023-03-24T01:28:55.822Z,9.711598
2023-03-24T01:29:55.799Z,9.711503
2023-03-24T01:30:55.806Z,9.711550
2023-03-24T01:31:56.131Z,9.711505
2023-03-24T01:32:55.833Z,9.711241
2023-03-24T01:33:55.799Z,9.710966
2023-03-24T01:34:55.764Z,9.710767
2023-03-24T01:35:55.812Z,9.710522
2023-03-24T01:36:56.613Z,9.710360
2023-03-24T01:37:55.749Z,9.711322
2023-03-24T01:38:55.738Z,9.711583
2023-03-24T01:39:55.737Z,9.711750
2023-03-24T01:40:55.717Z,9.711963
2023-03-24T01:41:55.726Z,9.712133
2023-03-24T01:42:55.756Z,9.712273
2023-03-24T01:43:56.611Z,9.712249
2023-03-24T01:44:55.687Z,9.712190
2023-03-24T01:45:56.655Z,9.712074
2023-03-24T01:46:56.683Z,9.712040
2023-03-24T01:47:55.732Z,9.712137
2023-03-24T01:48:55.659Z,9.711820
2023-03-24T01:49:56.183Z,9.711929
2023-03-24T01:50:55.636Z,9.711938
2023-03-24T01:51:55.635Z,9.711951
2023-03-24T01:52:55.631Z,9.711918
2023-03-24T01:53:56.694Z,9.711914
2023-03-24T01:54:55.630Z,9.711953
2023-03-24T01:55:55.643Z,9.711846
2023-03-24T01:56:55.659Z,9.711808
2023-03-24T01:57:55.582Z,9.711802
2023-03-24T01:58:55.575Z,9.711808
2023-03-24T01:59:55.556Z,9.711796
2023-03-24T02:00:55.587Z,9.711755
2023-03-24T02:01:56.193Z,9.711763
2023-03-24T02:02:55.556Z,9.711789
2023-03-24T02:03:56.209Z,9.711820
2023-03-24T02:04:55.550Z,9.711806
2023-03-24T02:05:55.518Z,9.711780
2023-03-24T02:06:55.532Z,9.711740
2023-03-24T02:07:55.503Z,9.711732
2023-03-24T02:08:55.530Z,9.711799
2023-03-24T02:09:55.491Z,9.711783
2023-03-24T02:10:55.481Z,9.711761
2023-03-24T02:11:55.485Z,9.711795
2023-03-24T02:12:55.486Z,9.711755
2023-03-24T02:13:55.467Z,9.711756
2023-03-24T02:14:55.453Z,9.711746
2023-03-24T02:15:55.479Z,9.711702
2023-03-24T02:16:55.433Z,9.711695
2023-03-24T02:17:56.170Z,9.711679
2023-03-24T02:18:55.420Z,9.711629
2023-03-24T02:19:55.414Z,9.711737
2023-03-24T02:20:55.418Z,9.711713
2023-03-24T02:21:55.402Z,9.711727
2023-03-24T02:22:55.403Z,9.711733
2023-03-24T02:23:55.372Z,9.711704
2023-03-24T02:24:55.422Z,9.711720
2023-03-24T02:25:55.376Z,9.711705
2023-03-24T02:26:55.344Z,9.711696
2023-03-24T02:27:56.198Z,9.711679
2023-03-24T02:28:55.348Z,9.711707
2023-03-24T02:29:55.338Z,9.711682
2023-03-24T02:30:55.314Z,9.711698
2023-03-24T02:31:55.360Z,9.711674
2023-03-24T02:32:55.310Z,9.711670
2023-03-24T02:33:55.305Z,9.711686
2023-03-24T02:34:55.292Z,9.711699
2023-03-24T02:35:55.328Z,9.711686
2023-03-24T02:36:55.278Z,9.711703
2023-03-24T02:37:55.281Z,9.711748
2023-03-24T02:38:55.253Z,9.711747
2023-03-24T02:39:56.257Z,9.711736
2023-03-24T02:40:55.241Z,9.711661
2023-03-24T02:41:55.227Z,9.711696
2023-03-24T02:42:55.232Z,9.711749
2023-03-24T02:43:55.227Z,9.711724
2023-03-24T02:44:55.232Z,9.711684
2023-03-24T02:45:55.316Z,9.711687
2023-03-24T02:46:55.197Z,9.711720
2023-03-24T02:47:55.263Z,9.711659
2023-03-24T02:48:55.184Z,9.711629
2023-03-24T02:49:55.177Z,9.711545
2023-03-24T02:50:55.164Z,9.711590
2023-03-24T02:51:55.166Z,9.711609
2023-03-24T02:52:55.140Z,9.711644
2023-03-24T02:53:55.129Z,9.711693
2023-03-24T02:54:55.122Z,9.711561
2023-03-24T02:55:55.114Z,9.711676
2023-03-24T02:56:55.193Z,9.711720
2023-03-24T02:57:55.122Z,9.711608
2023-03-24T02:58:55.113Z,9.711523
2023-03-24T02:59:55.086Z,9.711735
2023-03-24T03:00:55.090Z,9.711717
2023-03-24T03:01:55.131Z,9.711664
2023-03-24T03:02:55.078Z,9.711686
2023-03-24T03:03:55.105Z,9.711675
2023-03-24T03:04:55.080Z,9.711682
2023-03-24T03:05:55.064Z,9.711700
2023-03-24T03:06:55.025Z,9.711626
2023-03-24T03:07:55.025Z,9.711578
2023-03-24T03:08:55.022Z,9.711625
2023-03-24T03:09:55.018Z,9.711576
2023-03-24T03:10:55.000Z,9.711806
2023-03-24T03:11:55.012Z,9.711804
2023-03-24T03:12:54.998Z,9.711570
2023-03-24T03:13:54.984Z,9.711646
2023-03-24T03:14:54.977Z,9.711725
2023-03-24T03:15:55.065Z,9.711851
2023-03-24T03:16:54.954Z,9.711870
2023-03-24T03:17:55.022Z,9.711768
2023-03-24T03:18:54.949Z,9.711762
2023-03-24T03:19:54.927Z,9.711948
2023-03-24T03:20:54.936Z,9.711619
2023-03-24T03:21:54.918Z,9.711683
2023-03-24T03:22:54.947Z,9.711851
2023-03-24T03:23:54.912Z,9.711566
2023-03-24T03:24:54.882Z,9.711264
2023-03-24T03:25:54.894Z,9.711373
2023-03-24T03:26:54.872Z,9.711379
2023-03-24T03:27:54.886Z,9.711490
2023-03-24T03:28:54.879Z,9.711509
2023-03-24T03:29:54.854Z,9.711659
2023-03-24T03:30:54.901Z,9.711277
2023-03-24T03:31:54.830Z,9.711513
2023-03-24T03:32:54.871Z,9.711688
2023-03-24T03:33:54.821Z,9.711645
2023-03-24T03:38:02.190Z,9.711547
2023-03-24T03:39:02.177Z,9.711720
2023-03-24T03:40:02.158Z,9.711672
2023-03-24T03:41:02.164Z,9.711644
2023-03-24T03:42:02.171Z,9.711746
2023-03-24T03:43:02.152Z,9.711813
2023-03-24T03:44:02.164Z,9.711692
2023-03-24T03:45:02.122Z,9.711695
2023-03-24T03:46:02.194Z,9.711620
2023-03-24T03:47:02.114Z,9.711636
2023-03-24T03:48:02.192Z,9.711629
2023-03-24T03:49:02.130Z,9.711634
2023-03-24T21:49:04.602Z,9.711272
2023-03-24T21:50:04.591Z,9.711336
2023-03-24T21:51:04.581Z,9.711253
2023-03-24T21:52:04.645Z,9.711272
2023-03-24T21:53:04.553Z,9.711191
2023-03-24T21:54:04.610Z,9.711212
2023-03-24T21:55:04.551Z,9.711163
2023-03-24T21:56:04.791Z,9.711229
2023-03-24T21:57:04.555Z,9.711260
2023-03-24T21:58:04.537Z,9.711185
2023-03-24T21:59:04.580Z,9.711177
2023-03-24T22:00:04.546Z,9.711268
2023-03-24T22:01:04.534Z,9.711198
2023-03-24T22:02:04.500Z,9.711287
2023-03-24T22:03:05.301Z,9.711294
2023-03-24T22:04:04.560Z,9.711277
2023-03-24T22:05:04.497Z,9.711214
2023-03-24T22:06:04.461Z,9.711251
2023-03-24T22:07:04.475Z,9.711268
2023-03-24T22:08:04.444Z,9.711227
2023-03-24T22:09:04.435Z,9.711198
2023-03-24T22:10:04.422Z,9.711143
2023-03-24T22:11:04.502Z,9.711159
2023-03-24T22:12:04.421Z,9.711162
2023-03-24T22:13:04.425Z,9.711239
2023-03-24T22:14:04.403Z,9.711250
2023-03-24T22:15:04.407Z,9.711172
2023-03-24T22:16:04.388Z,9.711169
2023-03-24T22:17:04.465Z,9.711209
2023-03-24T22:18:04.425Z,9.711236
2023-03-24T22:19:04.361Z,9.711223
2023-03-24T22:20:04.375Z,9.711201
2023-03-24T22:21:04.435Z,9.711163
2023-03-24T22:22:04.977Z,9.711232
2023-03-24T22:23:04.341Z,9.711299
2023-03-24T22:24:04.322Z,9.711324
2023-03-24T22:25:04.324Z,9.711245
2023-03-24T22:26:04.369Z,9.711202
2023-03-24T22:27:04.293Z,9.711171
2023-03-24T22:28:04.275Z,9.711279
2023-03-24T22:29:04.278Z,9.711133
2023-03-24T22:30:04.278Z,9.711151
2023-03-24T22:31:04.262Z,9.710938
2023-03-24T22:32:04.283Z,9.710845
2023-03-24T22:33:04.298Z,9.710646
2023-03-24T22:34:04.233Z,9.710588
2023-03-24T22:35:04.230Z,9.710727
2023-03-24T22:36:04.260Z,9.711397
2023-03-24T22:37:04.213Z,9.711442
2023-03-24T22:38:04.203Z,9.711594
2023-03-24T22:39:04.195Z,9.711602
2023-03-24T22:40:04.982Z,9.711633
2023-03-24T22:41:04.300Z,9.711672
2023-03-24T22:42:06.063Z,9.711600
2023-03-24T22:43:04.160Z,9.711674
2023-03-24T22:44:04.160Z,9.711574
2023-03-24T22:45:04.139Z,9.711737
2023-03-24T22:46:04.151Z,9.711673
2023-03-24T22:47:04.135Z,9.711769
2023-03-24T22:48:04.160Z,9.711637
2023-03-24T22:49:04.972Z,9.711588
2023-03-24T22:50:04.137Z,9.711448
2023-03-24T22:51:04.104Z,9.711482
2023-03-24T22:52:04.089Z,9.711404
2023-03-24T22:53:04.072Z,9.711557
2023-03-24T22:54:04.091Z,9.711539
2023-03-24T22:55:04.061Z,9.711463
2023-03-24T22:56:04.056Z,9.711222
2023-03-24T22:57:04.064Z,9.711342
2023-03-24T22:58:04.032Z,9.711318
2023-03-24T22:59:04.034Z,9.711110
2023-03-24T23:00:04.023Z,9.711442
2023-03-24T23:01:04.000Z,9.711658
2023-03-24T23:02:09.809Z,9.711549
2023-03-24T23:03:06.045Z,9.711567
2023-03-24T23:04:04.023Z,9.711593
2023-03-24T23:05:04.051Z,9.711547
2023-03-24T23:06:03.973Z,9.711534
2023-03-24T23:07:03.974Z,9.711538
2023-03-24T23:08:03.973Z,9.711361
2023-03-24T23:09:03.941Z,9.711502
2023-03-24T23:10:04.063Z,9.711535
2023-03-24T23:11:03.917Z,9.711523
2023-03-24T23:12:03.923Z,9.711615
2023-03-24T23:13:03.908Z,9.711573
2023-03-24T23:14:03.905Z,9.711505
2023-03-24T23:15:03.910Z,9.711504
2023-03-24T23:16:03.898Z,9.711472
2023-03-24T23:17:03.882Z,9.711559
2023-03-24T23:18:03.885Z,9.711595
2023-03-24T23:19:03.866Z,9.711674
2023-03-24T23:20:03.871Z,9.711592
2023-03-24T23:21:03.856Z,9.711622
2023-03-24T23:22:03.836Z,9.711597
2023-03-24T23:23:05.112Z,9.711639
2023-03-24T23:24:03.820Z,9.711651
2023-03-24T23:25:03.830Z,9.711616
2023-03-24T23:26:03.838Z,9.711674
2023-03-24T23:27:03.794Z,9.711704
2023-03-24T23:28:04.491Z,9.711664
2023-03-24T23:29:03.806Z,9.711651
2023-03-24T23:30:03.793Z,9.711622
2023-03-24T23:31:03.808Z,9.711635
2023-03-24T23:32:03.768Z,9.711612
2023-03-24T23:33:03.845Z,9.711609
2023-03-24T23:34:03.739Z,9.711627
2023-03-24T23:35:03.829Z,9.711611
2023-03-24T23:36:03.743Z,9.711591
2023-03-24T23:37:03.725Z,9.711605
2023-03-24T23:38:03.710Z,9.711633
2023-03-24T23:39:03.717Z,9.711671
2023-03-24T23:40:03.695Z,9.711683
2023-03-24T23:41:03.682Z,9.711684
2023-03-24T23:42:03.745Z,9.711644
2023-03-24T23:43:03.664Z,9.711619
2023-03-24T23:44:03.652Z,9.711567
2023-03-24T23:45:03.656Z,9.711632
2023-03-24T23:46:03.676Z,9.711654
2023-03-24T23:47:03.720Z,9.711728
2023-03-24T23:48:03.671Z,9.711983
2023-03-24T23:49:04.624Z,9.711820
2023-03-24T23:50:03.622Z,9.711604
2023-03-24T23:51:03.619Z,9.711729
2023-03-24T23:52:03.598Z,9.711710
2023-03-24T23:53:03.599Z,9.711722
2023-03-24T23:54:03.578Z,9.711636
2023-03-24T23:55:03.577Z,9.711707
2023-03-24T23:56:03.574Z,9.711711
2023-03-24T23:57:03.566Z,9.711835
2023-03-24T23:58:03.556Z,9.711844
2023-03-24T23:59:03.542Z,9.711590
